CSN8353 ZGSZ-WIII
Flight info
| Callsign | CSN8353 |
|---|---|
| Flight time | N/A |
| Altitude | 30000 |
| Route | SIERA1 SIERA DCT ROCCA DCT ALLEY V32 EPDOS L642 EPKAL/K0883F310 L642 EXOTO/K0880F320 L642 CN/K0874F330 L644 DUDIS/N0472F330 L644 TPN W38W AMBOY/N0470F340 |
| Aircraft | A321/M-SDE3FGHIRWY/LB1 |
Departure
| Time | 2026-04-29 08:16 |
|---|---|
| Airport | Shenzhen Bao'an International Airport (ZGSZ) |
Arrival
| Time | N/A |
|---|---|
| Airport | Soekarno-Hatta International Airport (WIII) |
| Time | Latitude | Longitude | Altitude | Speed | Heading |
|---|---|---|---|---|---|
| 2026-04-29 07:41 | 22.63254 | 113.80255 | 16 ft | 0 kts | 153° |
| 2026-04-29 08:05 | 22.63255 | 113.80255 | 15 ft | 2 kts | 153° |
| 2026-04-29 08:06 | 22.63279 | 113.80243 | 15 ft | 4 kts | 164° |
| 2026-04-29 08:06 | 22.63305 | 113.80239 | 17 ft | 4 kts | 191° |
| 2026-04-29 08:06 | 22.63323 | 113.80250 | 18 ft | 1 kts | 243° |
| 2026-04-29 08:06 | 22.63323 | 113.80251 | 18 ft | 0 kts | 243° |
| 2026-04-29 08:09 | 22.63310 | 113.80221 | 16 ft | 10 kts | 244° |
| 2026-04-29 08:09 | 22.63277 | 113.80149 | 15 ft | 10 kts | 244° |
| 2026-04-29 08:10 | 22.63249 | 113.80087 | 15 ft | 8 kts | 243° |
| 2026-04-29 08:10 | 22.63220 | 113.80025 | 15 ft | 9 kts | 243° |
| 2026-04-29 08:10 | 22.63185 | 113.79966 | 15 ft | 10 kts | 219° |
| 2026-04-29 08:10 | 22.63133 | 113.79974 | 15 ft | 7 kts | 152° |
| 2026-04-29 08:11 | 22.63089 | 113.79999 | 15 ft | 10 kts | 152° |
| 2026-04-29 08:11 | 22.63020 | 113.80038 | 15 ft | 10 kts | 153° |
| 2026-04-29 08:11 | 22.62956 | 113.80073 | 15 ft | 10 kts | 153° |
| 2026-04-29 08:11 | 22.62899 | 113.80105 | 15 ft | 10 kts | 153° |
| 2026-04-29 08:12 | 22.62799 | 113.80160 | 15 ft | 19 kts | 153° |
| 2026-04-29 08:12 | 22.62690 | 113.80219 | 16 ft | 17 kts | 153° |
| 2026-04-29 08:12 | 22.62594 | 113.80272 | 15 ft | 14 kts | 153° |
| 2026-04-29 08:12 | 22.62510 | 113.80315 | 15 ft | 12 kts | 166° |
| 2026-04-29 08:13 | 22.62457 | 113.80274 | 15 ft | 9 kts | 250° |
| 2026-04-29 08:13 | 22.62454 | 113.80265 | 15 ft | 0 kts | 250° |
| 2026-04-29 08:13 | 22.62443 | 113.80238 | 15 ft | 13 kts | 245° |
| 2026-04-29 08:13 | 22.62422 | 113.80170 | 15 ft | 7 kts | 272° |
| 2026-04-29 08:14 | 22.62445 | 113.80132 | 15 ft | 6 kts | 326° |
| 2026-04-29 08:14 | 22.62492 | 113.80111 | 15 ft | 0 kts | 335° |
| 2026-04-29 08:15 | 22.62519 | 113.80097 | 15 ft | 22 kts | 334° |
| 2026-04-29 08:15 | 22.62873 | 113.79901 | 15 ft | 89 kts | 333° |
| 2026-04-29 08:15 | 22.63585 | 113.79507 | 16 ft | 139 kts | 333° |
| 2026-04-29 08:16 | 22.64577 | 113.78968 | 23 ft | 178 kts | 334° |
| 2026-04-29 08:16 | 22.65649 | 113.78390 | 669 ft | 164 kts | 333° |
| 2026-04-29 08:16 | 22.66665 | 113.77815 | 1277 ft | 167 kts | 330° |
| 2026-04-29 08:16 | 22.67619 | 113.77009 | 1665 ft | 183 kts | 317° |
| 2026-04-29 08:17 | 22.68569 | 113.75981 | 1797 ft | 202 kts | 317° |
| 2026-04-29 08:17 | 22.69612 | 113.74861 | 1906 ft | 221 kts | 318° |
| 2026-04-29 08:17 | 22.70757 | 113.73635 | 2151 ft | 238 kts | 319° |
| 2026-04-29 08:17 | 22.71947 | 113.72356 | 2708 ft | 243 kts | 317° |
| 2026-04-29 08:18 | 22.73130 | 113.71085 | 3392 ft | 243 kts | 316° |
| 2026-04-29 08:18 | 22.74336 | 113.69792 | 4011 ft | 245 kts | 314° |
| 2026-04-29 08:18 | 22.75561 | 113.68481 | 4546 ft | 250 kts | 313° |
| 2026-04-29 08:18 | 22.76601 | 113.66966 | 5037 ft | 252 kts | 290° |
| 2026-04-29 08:19 | 22.76934 | 113.65110 | 5509 ft | 255 kts | 265° |
| 2026-04-29 08:19 | 22.76467 | 113.63267 | 6087 ft | 256 kts | 244° |
| 2026-04-29 08:19 | 22.75643 | 113.61549 | 6624 ft | 259 kts | 243° |
| 2026-04-29 08:19 | 22.74617 | 113.59956 | 7175 ft | 261 kts | 221° |
| 2026-04-29 08:20 | 22.73001 | 113.59108 | 7677 ft | 270 kts | 191° |
| 2026-04-29 08:20 | 22.71116 | 113.59330 | 8162 ft | 281 kts | 165° |
| 2026-04-29 08:20 | 22.69269 | 113.60063 | 8671 ft | 284 kts | 164° |
| 2026-04-29 08:20 | 22.67417 | 113.60826 | 9197 ft | 286 kts | 164° |
| 2026-04-29 08:21 | 22.65550 | 113.61601 | 9720 ft | 288 kts | 164° |
| 2026-04-29 08:21 | 22.63669 | 113.62377 | 10177 ft | 291 kts | 165° |
| 2026-04-29 08:21 | 22.61774 | 113.63152 | 10629 ft | 293 kts | 165° |
| 2026-04-29 08:21 | 22.60508 | 113.63668 | 10928 ft | 294 kts | 165° |
| 2026-04-29 08:22 | 22.57935 | 113.64712 | 11549 ft | 297 kts | 165° |
| 2026-04-29 08:22 | 22.56012 | 113.65452 | 11986 ft | 297 kts | 170° |
| 2026-04-29 08:22 | 22.53997 | 113.65847 | 12397 ft | 294 kts | 181° |
| 2026-04-29 08:22 | 22.51958 | 113.65804 | 12803 ft | 292 kts | 192° |
| 2026-04-29 08:23 | 22.49982 | 113.65338 | 13229 ft | 290 kts | 203° |
| 2026-04-29 08:23 | 22.48143 | 113.64476 | 13651 ft | 288 kts | 213° |
| 2026-04-29 08:23 | 22.47015 | 113.63721 | 13904 ft | 288 kts | 216° |
| 2026-04-29 08:23 | 22.44749 | 113.62148 | 14413 ft | 290 kts | 216° |
| 2026-04-29 08:24 | 22.43618 | 113.61368 | 14669 ft | 291 kts | 216° |
| 2026-04-29 08:24 | 22.41903 | 113.60189 | 15062 ft | 293 kts | 216° |
| 2026-04-29 08:24 | 22.40180 | 113.59006 | 15445 ft | 294 kts | 216° |
| 2026-04-29 08:24 | 22.38444 | 113.57816 | 15828 ft | 296 kts | 216° |
| 2026-04-29 08:25 | 22.36132 | 113.56235 | 16335 ft | 298 kts | 216° |
| 2026-04-29 08:25 | 22.34971 | 113.55440 | 16596 ft | 299 kts | 217° |
| 2026-04-29 08:25 | 22.32613 | 113.53830 | 17112 ft | 301 kts | 217° |
| 2026-04-29 08:25 | 22.31439 | 113.53027 | 17363 ft | 302 kts | 217° |
| 2026-04-29 08:26 | 22.29661 | 113.51809 | 17738 ft | 304 kts | 217° |
| 2026-04-29 08:26 | 22.27278 | 113.50196 | 18204 ft | 307 kts | 213° |
| 2026-04-29 08:26 | 22.25334 | 113.49198 | 18503 ft | 313 kts | 205° |
| 2026-04-29 08:26 | 22.23927 | 113.48706 | 18711 ft | 316 kts | 199° |
| 2026-04-29 08:27 | 22.21016 | 113.48215 | 19121 ft | 324 kts | 187° |
| 2026-04-29 08:27 | 22.19514 | 113.48219 | 19314 ft | 328 kts | 181° |
| 2026-04-29 08:27 | 22.17230 | 113.48563 | 19617 ft | 335 kts | 172° |
| 2026-04-29 08:27 | 22.14219 | 113.49576 | 20019 ft | 341 kts | 167° |
| 2026-04-29 08:28 | 22.12731 | 113.50126 | 20223 ft | 342 kts | 167° |
| 2026-04-29 08:28 | 22.10470 | 113.50956 | 20533 ft | 343 kts | 167° |
| 2026-04-29 08:28 | 22.07469 | 113.52054 | 20922 ft | 345 kts | 167° |
| 2026-04-29 08:28 | 22.05931 | 113.52617 | 21126 ft | 346 kts | 167° |
| 2026-04-29 08:29 | 22.03646 | 113.53451 | 21426 ft | 347 kts | 167° |
| 2026-04-29 08:29 | 22.01352 | 113.54289 | 21721 ft | 349 kts | 167° |
| 2026-04-29 08:29 | 21.99055 | 113.54998 | 22000 ft | 346 kts | 174° |
| 2026-04-29 08:29 | 21.96689 | 113.55427 | 22293 ft | 344 kts | 180° |
| 2026-04-29 08:30 | 21.94310 | 113.55596 | 22593 ft | 343 kts | 182° |
| 2026-04-29 08:30 | 21.89533 | 113.55875 | 23194 ft | 345 kts | 182° |
| 2026-04-29 08:30 | 21.87136 | 113.56024 | 23503 ft | 345 kts | 182° |
| 2026-04-29 08:31 | 21.84743 | 113.56175 | 23793 ft | 344 kts | 182° |
| 2026-04-29 08:31 | 21.82332 | 113.56321 | 23929 ft | 350 kts | 182° |
| 2026-04-29 08:31 | 21.79918 | 113.56465 | 24047 ft | 355 kts | 182° |
| 2026-04-29 08:31 | 21.77436 | 113.56614 | 24161 ft | 360 kts | 182° |
| 2026-04-29 08:32 | 21.74915 | 113.56765 | 24267 ft | 365 kts | 182° |
| 2026-04-29 08:32 | 21.72359 | 113.56918 | 24379 ft | 370 kts | 181° |
| 2026-04-29 08:32 | 21.69767 | 113.57076 | 24494 ft | 375 kts | 181° |
| 2026-04-29 08:32 | 21.67140 | 113.57237 | 24605 ft | 380 kts | 181° |
| 2026-04-29 08:33 | 21.64484 | 113.57401 | 24704 ft | 385 kts | 181° |
| 2026-04-29 08:33 | 21.61808 | 113.57566 | 24818 ft | 389 kts | 181° |
| 2026-04-29 08:33 | 21.59087 | 113.57731 | 24932 ft | 393 kts | 181° |
| 2026-04-29 08:33 | 21.56388 | 113.57899 | 25043 ft | 397 kts | 180° |
| 2026-04-29 08:34 | 21.53624 | 113.58325 | 25156 ft | 405 kts | 172° |
| 2026-04-29 08:34 | 21.50891 | 113.59183 | 25271 ft | 413 kts | 163° |
| 2026-04-29 08:34 | 21.48224 | 113.60397 | 25387 ft | 419 kts | 161° |
| 2026-04-29 08:34 | 21.45538 | 113.61648 | 25516 ft | 422 kts | 161° |
| 2026-04-29 08:35 | 21.42831 | 113.62892 | 25622 ft | 425 kts | 161° |
| 2026-04-29 08:35 | 21.40099 | 113.64141 | 25753 ft | 429 kts | 161° |
| 2026-04-29 08:35 | 21.37345 | 113.65401 | 25856 ft | 432 kts | 161° |
| 2026-04-29 08:35 | 21.34612 | 113.66653 | 25967 ft | 435 kts | 161° |
| 2026-04-29 08:36 | 21.31822 | 113.67936 | 26090 ft | 438 kts | 161° |
| 2026-04-29 08:36 | 21.29006 | 113.69235 | 26202 ft | 441 kts | 161° |
| 2026-04-29 08:36 | 21.26181 | 113.70537 | 26310 ft | 444 kts | 161° |
| 2026-04-29 08:36 | 21.23333 | 113.71851 | 26444 ft | 447 kts | 161° |
| 2026-04-29 08:37 | 21.20469 | 113.73169 | 26561 ft | 450 kts | 161° |
| 2026-04-29 08:37 | 21.17586 | 113.74495 | 26683 ft | 452 kts | 161° |
| 2026-04-29 08:37 | 21.14683 | 113.75826 | 26796 ft | 455 kts | 161° |
| 2026-04-29 08:37 | 21.11782 | 113.77060 | 26915 ft | 454 kts | 167° |
| 2026-04-29 08:38 | 21.08723 | 113.77852 | 27039 ft | 451 kts | 175° |
| 2026-04-29 08:38 | 21.05612 | 113.78128 | 27165 ft | 448 kts | 184° |
| 2026-04-29 08:38 | 21.02512 | 113.77912 | 27289 ft | 446 kts | 189° |
| 2026-04-29 08:38 | 20.99417 | 113.77556 | 27400 ft | 448 kts | 190° |
| 2026-04-29 08:39 | 20.96307 | 113.77205 | 27524 ft | 450 kts | 189° |
| 2026-04-29 08:39 | 20.93187 | 113.76858 | 27648 ft | 452 kts | 189° |
| 2026-04-29 08:39 | 20.90099 | 113.76517 | 27780 ft | 453 kts | 189° |
| 2026-04-29 08:39 | 20.86958 | 113.76170 | 27962 ft | 454 kts | 189° |
| 2026-04-29 08:40 | 20.83820 | 113.75821 | 28175 ft | 453 kts | 189° |
| 2026-04-29 08:40 | 20.80683 | 113.75470 | 28393 ft | 453 kts | 189° |
| 2026-04-29 08:40 | 20.77549 | 113.75119 | 28610 ft | 452 kts | 189° |
| 2026-04-29 08:40 | 20.74420 | 113.74766 | 28798 ft | 453 kts | 189° |
| 2026-04-29 08:41 | 20.71281 | 113.74414 | 28936 ft | 454 kts | 189° |
| 2026-04-29 08:41 | 20.68149 | 113.74065 | 29202 ft | 452 kts | 189° |
| 2026-04-29 08:41 | 20.65026 | 113.73716 | 29429 ft | 451 kts | 189° |
| 2026-04-29 08:41 | 20.61904 | 113.73369 | 29654 ft | 450 kts | 189° |
| 2026-04-29 08:42 | 20.58833 | 113.73029 | 29848 ft | 450 kts | 189° |
| 2026-04-29 08:42 | 20.52578 | 113.72335 | 29907 ft | 453 kts | 189° |
| 2026-04-29 08:43 | 20.46303 | 113.71636 | 29914 ft | 453 kts | 189° |
| 2026-04-29 08:43 | 20.40024 | 113.70937 | 29908 ft | 454 kts | 189° |
| 2026-04-29 08:44 | 20.33787 | 113.70251 | 29906 ft | 454 kts | 189° |
| 2026-04-29 08:44 | 20.27511 | 113.69548 | 29911 ft | 453 kts | 189° |
| 2026-04-29 08:45 | 20.21238 | 113.68845 | 29904 ft | 453 kts | 189° |
| 2026-04-29 08:45 | 20.14961 | 113.68149 | 29910 ft | 453 kts | 189° |
| 2026-04-29 08:46 | 20.08688 | 113.67460 | 29907 ft | 452 kts | 189° |
| 2026-04-29 08:46 | 20.02478 | 113.66770 | 29915 ft | 451 kts | 189° |
| 2026-04-29 08:47 | 19.96237 | 113.66080 | 29913 ft | 451 kts | 189° |
| 2026-04-29 08:47 | 19.89998 | 113.65397 | 29918 ft | 450 kts | 189° |
| 2026-04-29 08:48 | 19.83766 | 113.64705 | 29910 ft | 450 kts | 189° |
| 2026-04-29 08:48 | 19.77575 | 113.64026 | 29894 ft | 450 kts | 189° |
| 2026-04-29 08:49 | 19.71345 | 113.63341 | 29903 ft | 450 kts | 189° |
| 2026-04-29 08:49 | 19.65120 | 113.62650 | 29897 ft | 450 kts | 189° |
| 2026-04-29 08:50 | 19.58891 | 113.61960 | 29891 ft | 450 kts | 189° |
| 2026-04-29 08:50 | 19.52705 | 113.61275 | 29901 ft | 450 kts | 189° |
| 2026-04-29 08:51 | 19.40078 | 113.59885 | 29895 ft | 450 kts | 189° |
| 2026-04-29 08:53 | 19.25993 | 113.58352 | 29895 ft | 450 kts | 189° |
| 2026-04-29 08:53 | 19.19959 | 113.57688 | 29893 ft | 450 kts | 189° |